createdAt,value
2018-12-30T00:01:45.592Z,8.20
2018-12-30T00:04:14.242Z,8.20
2018-12-30T00:06:43.247Z,8.20
2018-12-30T00:09:12.026Z,8.10
2018-12-30T00:11:40.704Z,8.10
2018-12-30T00:14:09.333Z,8.10
2018-12-30T00:16:37.948Z,8.00
2018-12-30T00:19:06.561Z,8.00
2018-12-30T00:21:35.128Z,7.90
2018-12-30T00:24:03.924Z,7.80
2018-12-30T00:26:32.537Z,7.70
2018-12-30T00:29:01.778Z,7.70
2018-12-30T00:31:30.444Z,7.60
2018-12-30T00:33:59.083Z,7.60
2018-12-30T00:36:27.792Z,7.50
2018-12-30T00:38:56.497Z,7.50
2018-12-30T00:41:25.186Z,7.40
2018-12-30T00:43:53.785Z,7.40
2018-12-30T00:46:22.413Z,7.40
2018-12-30T00:48:51.001Z,7.30
2018-12-30T00:51:19.630Z,7.30
2018-12-30T00:53:48.303Z,7.20
2018-12-30T00:56:17.313Z,7.20
2018-12-30T00:58:45.878Z,7.20
2018-12-30T01:01:14.436Z,7.10
2018-12-30T01:03:43.111Z,7.10
2018-12-30T01:06:11.698Z,7.10
2018-12-30T01:08:40.378Z,7.10
2018-12-30T01:11:09.062Z,7.00
2018-12-30T01:13:37.621Z,7.00
2018-12-30T01:16:06.214Z,7.00
2018-12-30T01:18:34.773Z,7.00
2018-12-30T01:21:03.408Z,7.00
2018-12-30T01:23:32.063Z,7.00
2018-12-30T01:26:00.623Z,7.00
2018-12-30T01:28:29.402Z,7.00
2018-12-30T01:30:58.008Z,7.00
2018-12-30T01:33:26.569Z,7.00
2018-12-30T01:35:55.120Z,7.00
2018-12-30T01:38:23.834Z,6.90
2018-12-30T01:40:52.397Z,6.90
2018-12-30T01:43:21.103Z,6.90
2018-12-30T01:45:49.718Z,6.90
2018-12-30T01:48:18.396Z,6.90
2018-12-30T01:50:46.959Z,6.90
2018-12-30T01:53:15.597Z,6.90
2018-12-30T01:55:44.114Z,6.90
2018-12-30T01:58:12.673Z,6.90
2018-12-30T02:00:41.279Z,6.90
2018-12-30T02:03:09.844Z,6.90
2018-12-30T02:05:38.397Z,6.90
2018-12-30T02:08:07.045Z,6.90
2018-12-30T02:10:36.068Z,6.90
2018-12-30T02:13:04.665Z,6.90
2018-12-30T02:15:33.279Z,6.90
2018-12-30T02:18:02.127Z,6.80
2018-12-30T02:20:30.688Z,6.90
2018-12-30T02:22:59.305Z,6.80
2018-12-30T02:25:27.865Z,6.90
2018-12-30T02:27:56.429Z,6.80
2018-12-30T02:30:25.341Z,6.80
2018-12-30T02:32:53.889Z,6.80
2018-12-30T02:35:22.461Z,6.80
2018-12-30T02:37:51.056Z,6.80
2018-12-30T02:40:19.616Z,6.80
2018-12-30T02:42:48.481Z,6.80
2018-12-30T02:45:17.095Z,6.70
2018-12-30T02:47:45.649Z,6.70
2018-12-30T02:50:14.213Z,6.70
2018-12-30T02:52:42.816Z,6.70
2018-12-30T02:55:11.781Z,6.60
2018-12-30T02:57:40.339Z,6.60
2018-12-30T03:00:09.121Z,6.60
2018-12-30T03:02:37.675Z,6.50
2018-12-30T03:05:06.880Z,6.50
2018-12-30T03:07:35.689Z,6.50
2018-12-30T03:10:04.585Z,6.50
2018-12-30T03:12:33.164Z,6.60
2018-12-30T03:15:01.752Z,6.50
2018-12-30T03:17:30.320Z,6.60
2018-12-30T03:19:58.995Z,6.50
2018-12-30T03:22:27.597Z,6.50
2018-12-30T03:24:56.161Z,6.60
2018-12-30T03:27:24.722Z,6.50
2018-12-30T03:29:53.326Z,6.60
2018-12-30T03:32:21.890Z,6.50
2018-12-30T03:34:50.444Z,6.50
2018-12-30T03:37:19.044Z,6.50
2018-12-30T03:39:47.610Z,6.50
2018-12-30T03:42:16.166Z,6.60
2018-12-30T03:44:44.774Z,6.60
2018-12-30T03:47:13.330Z,6.60
2018-12-30T03:49:42.013Z,6.70
2018-12-30T03:52:10.612Z,6.70
2018-12-30T03:54:39.174Z,6.70
2018-12-30T03:57:08.265Z,6.70
2018-12-30T03:59:36.884Z,6.70
2018-12-30T04:02:05.443Z,6.70
2018-12-30T04:04:34.004Z,6.80
2018-12-30T04:07:02.661Z,6.80
2018-12-30T04:09:31.222Z,6.80
2018-12-30T04:11:59.902Z,6.80
2018-12-30T04:14:28.497Z,6.80
2018-12-30T04:16:57.066Z,6.80
2018-12-30T04:19:25.621Z,6.90
2018-12-30T04:21:54.237Z,6.90
2018-12-30T04:24:22.797Z,6.90
2018-12-30T04:26:51.363Z,6.90
2018-12-30T04:29:19.975Z,6.90
2018-12-30T04:31:48.537Z,6.90
2018-12-30T04:34:17.090Z,6.90
2018-12-30T04:36:45.740Z,6.90
2018-12-30T04:39:14.423Z,6.80
2018-12-30T04:41:42.977Z,6.90
2018-12-30T04:44:11.593Z,6.90
2018-12-30T04:46:40.158Z,6.90
2018-12-30T04:49:08.733Z,6.90
2018-12-30T04:51:37.431Z,6.90
2018-12-30T04:54:05.990Z,6.90
2018-12-30T04:56:34.553Z,6.90
2018-12-30T04:59:03.229Z,7.00
2018-12-30T05:01:32.127Z,6.90
2018-12-30T05:04:00.833Z,7.00
2018-12-30T05:06:29.472Z,6.90
2018-12-30T05:08:58.048Z,7.00
2018-12-30T05:11:26.611Z,7.00
2018-12-30T05:13:55.385Z,7.00
2018-12-30T05:16:23.962Z,7.00
2018-12-30T05:18:52.525Z,7.00
2018-12-30T05:21:21.138Z,7.00
2018-12-30T05:23:49.694Z,7.00
2018-12-30T05:26:18.257Z,7.00
2018-12-30T05:28:46.875Z,7.10
2018-12-30T05:31:15.434Z,7.10
2018-12-30T05:33:43.994Z,7.10
2018-12-30T05:36:12.605Z,7.20
2018-12-30T05:38:41.160Z,7.20
2018-12-30T05:41:09.913Z,7.20
2018-12-30T05:43:39.206Z,7.20
2018-12-30T05:46:07.756Z,7.20
2018-12-30T05:48:37.824Z,7.20
2018-12-30T05:51:06.426Z,7.20
2018-12-30T05:53:34.986Z,7.20
2018-12-30T05:56:03.552Z,7.20
2018-12-30T05:58:32.179Z,7.20
2018-12-30T06:01:00.725Z,7.20
2018-12-30T06:03:29.281Z,7.20
2018-12-30T06:05:57.890Z,7.20
2018-12-30T06:08:26.448Z,7.20
2018-12-30T06:10:57.583Z,7.20
2018-12-30T06:13:26.192Z,7.20
2018-12-30T06:15:54.753Z,7.30
2018-12-30T06:18:23.359Z,7.20
2018-12-30T06:20:51.949Z,7.30
2018-12-30T06:23:20.508Z,7.30
2018-12-30T06:25:49.068Z,7.30
2018-12-30T06:28:17.673Z,7.30
2018-12-30T06:30:46.233Z,7.30
2018-12-30T06:33:14.798Z,7.30
2018-12-30T06:35:43.403Z,7.30
2018-12-30T06:38:11.965Z,7.30
2018-12-30T06:40:40.517Z,7.30
2018-12-30T06:43:09.596Z,7.40
2018-12-30T06:45:38.159Z,7.40
2018-12-30T06:48:06.725Z,7.40
2018-12-30T06:50:35.340Z,7.40
2018-12-30T06:53:03.909Z,7.40
2018-12-30T06:55:32.468Z,7.40
2018-12-30T06:58:01.084Z,7.40
2018-12-30T07:00:29.643Z,7.40
2018-12-30T07:02:58.218Z,7.40
2018-12-30T07:05:26.801Z,7.40
2018-12-30T07:07:55.365Z,7.40
2018-12-30T07:10:23.991Z,7.40
2018-12-30T07:12:52.600Z,7.40
2018-12-30T07:15:21.167Z,7.40
2018-12-30T07:17:49.721Z,7.40
2018-12-30T07:20:18.328Z,7.40
2018-12-30T07:22:46.887Z,7.30
2018-12-30T07:25:15.469Z,7.30
2018-12-30T07:27:44.079Z,7.40
2018-12-30T07:30:12.641Z,7.40
2018-12-30T07:32:41.202Z,7.40
2018-12-30T07:35:10.485Z,7.40
2018-12-30T07:37:39.052Z,7.40
2018-12-30T07:40:07.676Z,7.40
2018-12-30T07:42:36.291Z,7.40
2018-12-30T07:45:05.328Z,7.40
2018-12-30T07:47:33.912Z,7.40
2018-12-30T07:50:02.762Z,7.40
2018-12-30T07:52:31.326Z,7.40
2018-12-30T07:54:59.886Z,7.40
2018-12-30T07:57:28.507Z,7.40
2018-12-30T07:59:57.065Z,7.50
2018-12-30T08:02:25.627Z,7.50
2018-12-30T08:04:54.405Z,7.50
2018-12-30T08:07:22.964Z,7.50
2018-12-30T08:09:51.525Z,7.50
2018-12-30T08:12:20.129Z,7.50
2018-12-30T08:14:48.685Z,7.60
2018-12-30T08:17:17.257Z,7.60
2018-12-30T08:19:45.890Z,7.60
2018-12-30T08:22:14.445Z,7.60
2018-12-30T08:24:43.011Z,7.60
2018-12-30T08:27:11.765Z,7.70
2018-12-30T08:29:40.328Z,7.70
2018-12-30T08:32:08.890Z,7.90
2018-12-30T08:34:37.564Z,8.40
2018-12-30T08:37:07.399Z,8.70
2018-12-30T08:39:36.093Z,9.00
2018-12-30T08:42:04.689Z,8.90
2018-12-30T08:44:33.337Z,8.70
2018-12-30T08:47:01.917Z,8.50
2018-12-30T08:49:30.541Z,8.30
2018-12-30T08:51:59.106Z,8.10
2018-12-30T08:54:27.678Z,8.10
2018-12-30T08:56:56.288Z,8.10
2018-12-30T08:59:24.871Z,8.20
2018-12-30T09:01:53.436Z,8.10
2018-12-30T09:04:22.058Z,8.00
2018-12-30T09:06:52.101Z,7.90
2018-12-30T09:09:20.693Z,8.00
2018-12-30T09:11:49.293Z,8.00
2018-12-30T09:14:17.849Z,8.00
2018-12-30T09:16:46.409Z,8.00
2018-12-30T09:19:15.033Z,8.00
2018-12-30T09:21:43.597Z,7.90
2018-12-30T09:24:12.340Z,7.90
2018-12-30T09:26:40.945Z,8.00
2018-12-30T09:29:09.763Z,8.10
2018-12-30T09:31:38.304Z,8.10
2018-12-30T09:34:06.908Z,8.10
2018-12-30T09:36:35.516Z,8.10
2018-12-30T09:39:05.769Z,8.10
2018-12-30T09:41:34.396Z,8.20
2018-12-30T09:44:02.957Z,8.20
2018-12-30T09:46:31.517Z,8.30
2018-12-30T09:49:00.120Z,8.30
2018-12-30T09:51:28.684Z,8.40
2018-12-30T09:53:57.246Z,8.40
2018-12-30T09:56:25.862Z,8.50
2018-12-30T09:58:54.425Z,8.60
2018-12-30T10:01:22.992Z,8.60
2018-12-30T10:03:51.613Z,8.70
2018-12-30T10:06:20.174Z,8.70
2018-12-30T10:08:48.736Z,8.70
2018-12-30T10:11:17.341Z,8.70
2018-12-30T10:13:45.901Z,8.70
2018-12-30T10:16:14.460Z,8.60
2018-12-30T10:18:43.156Z,8.60
2018-12-30T10:21:11.705Z,8.70
2018-12-30T10:23:40.285Z,8.70
2018-12-30T10:26:08.893Z,8.70
2018-12-30T10:28:37.458Z,8.80
2018-12-30T10:31:06.005Z,8.80
2018-12-30T10:33:34.619Z,8.80
2018-12-30T10:36:03.184Z,8.80
2018-12-30T10:38:31.760Z,8.80
2018-12-30T10:41:00.372Z,8.80
2018-12-30T10:43:29.045Z,8.80
2018-12-30T10:45:57.608Z,8.80
2018-12-30T10:48:26.242Z,8.90
2018-12-30T10:50:54.773Z,8.90
2018-12-30T10:53:23.338Z,8.90
2018-12-30T10:55:51.936Z,8.90
2018-12-30T10:58:20.501Z,9.00
2018-12-30T11:00:49.060Z,9.00
2018-12-30T11:03:17.741Z,8.90
2018-12-30T11:05:46.296Z,8.90
2018-12-30T11:08:14.854Z,8.90
2018-12-30T11:10:43.744Z,8.90
2018-12-30T11:13:12.313Z,8.90
2018-12-30T11:15:40.907Z,9.00
2018-12-30T11:18:09.508Z,8.90
2018-12-30T11:20:38.069Z,9.00
2018-12-30T11:23:06.628Z,9.00
2018-12-30T11:25:35.233Z,8.90
2018-12-30T11:28:03.860Z,8.90
2018-12-30T11:30:32.420Z,8.90
2018-12-30T11:33:01.033Z,8.90
2018-12-30T11:35:29.600Z,8.90
2018-12-30T11:37:58.229Z,8.90
2018-12-30T11:40:26.840Z,8.90
2018-12-30T11:42:55.396Z,8.90
2018-12-30T11:45:23.976Z,8.90
2018-12-30T11:47:52.572Z,8.90
2018-12-30T11:50:21.132Z,8.90
2018-12-30T11:52:49.701Z,8.90
2018-12-30T11:55:18.315Z,8.90
2018-12-30T11:57:46.872Z,8.90
2018-12-30T12:00:15.503Z,8.90
2018-12-30T12:02:44.555Z,8.90
2018-12-30T12:05:13.182Z,8.90
2018-12-30T12:07:41.736Z,8.90
2018-12-30T12:10:10.534Z,8.90
2018-12-30T12:12:39.109Z,8.80
2018-12-30T12:15:07.744Z,8.80
2018-12-30T12:17:36.362Z,8.70
2018-12-30T12:20:05.879Z,8.70
2018-12-30T12:22:34.442Z,8.70
2018-12-30T12:25:03.181Z,8.70
2018-12-30T12:27:31.738Z,8.70
2018-12-30T12:30:00.304Z,8.70
2018-12-30T12:32:28.906Z,8.70
2018-12-30T12:34:57.477Z,8.70
2018-12-30T12:37:26.028Z,8.70
2018-12-30T12:39:54.712Z,8.80
2018-12-30T12:42:23.402Z,8.90
2018-12-30T12:44:51.967Z,8.90
2018-12-30T12:47:20.568Z,8.90
2018-12-30T12:49:49.137Z,8.90
2018-12-30T12:52:17.700Z,8.90
2018-12-30T12:54:46.317Z,8.80
2018-12-30T12:57:15.235Z,8.90
2018-12-30T12:59:43.743Z,8.80
2018-12-30T13:02:12.461Z,8.80
2018-12-30T13:04:40.989Z,8.80
2018-12-30T13:07:09.668Z,8.80
2018-12-30T13:09:38.275Z,8.80
2018-12-30T13:12:06.832Z,8.80
2018-12-30T13:14:35.400Z,8.80
2018-12-30T13:17:04.005Z,8.80
2018-12-30T13:19:32.573Z,8.80
2018-12-30T13:22:01.506Z,8.70
2018-12-30T13:24:30.160Z,8.70
2018-12-30T13:26:58.690Z,8.80
2018-12-30T13:29:27.245Z,8.70
2018-12-30T13:31:55.872Z,8.80
2018-12-30T13:34:24.436Z,8.80
2018-12-30T13:36:53.006Z,8.80
2018-12-30T13:39:21.613Z,8.70
2018-12-30T13:41:50.339Z,8.70
2018-12-30T13:44:18.924Z,8.70
2018-12-30T13:46:47.518Z,8.70
2018-12-30T13:49:16.093Z,8.70
2018-12-30T13:51:44.705Z,8.70
2018-12-30T13:54:13.617Z,8.70
2018-12-30T13:56:42.142Z,8.70
2018-12-30T13:59:10.706Z,8.70
2018-12-30T14:01:40.306Z,8.70
2018-12-30T14:04:08.875Z,8.70
2018-12-30T14:06:37.433Z,8.70
2018-12-30T14:09:07.252Z,8.70
2018-12-30T14:11:35.946Z,8.70
2018-12-30T14:14:04.540Z,8.60
2018-12-30T14:16:33.217Z,8.60
2018-12-30T14:19:01.779Z,8.60
2018-12-30T14:21:30.345Z,8.60
2018-12-30T14:23:58.989Z,8.60
2018-12-30T14:26:27.620Z,8.60
2018-12-30T14:28:56.591Z,8.60
2018-12-30T14:31:25.199Z,8.60
2018-12-30T14:33:53.765Z,8.50
2018-12-30T14:36:22.338Z,8.50
2018-12-30T14:38:50.960Z,8.50
2018-12-30T14:41:19.502Z,8.50
2018-12-30T14:43:48.093Z,8.40
2018-12-30T14:46:16.718Z,8.40
2018-12-30T14:48:45.284Z,8.30
2018-12-30T14:51:13.893Z,8.20
2018-12-30T14:53:42.505Z,8.20
2018-12-30T14:56:11.068Z,8.20
2018-12-30T14:58:39.700Z,8.10
2018-12-30T15:01:14.750Z,8.10
2018-12-30T15:03:38.554Z,8.10
2018-12-30T15:06:07.123Z,8.10
2018-12-30T15:08:35.735Z,8.00
2018-12-30T15:11:04.307Z,8.00
2018-12-30T15:13:32.870Z,8.00
2018-12-30T15:16:01.548Z,7.90
2018-12-30T15:18:30.129Z,7.90
2018-12-30T15:20:58.801Z,7.90
2018-12-30T15:23:27.471Z,7.90
2018-12-30T15:25:56.029Z,7.90
2018-12-30T15:28:24.607Z,7.90
2018-12-30T15:30:53.198Z,7.90
2018-12-30T15:33:21.781Z,7.90
2018-12-30T15:35:50.401Z,7.80
2018-12-30T15:38:19.024Z,7.80
2018-12-30T15:40:48.241Z,7.80
2018-12-30T15:43:16.893Z,7.70
2018-12-30T15:45:45.502Z,7.70
2018-12-30T15:48:14.073Z,7.70
2018-12-30T15:50:42.637Z,7.70
2018-12-30T15:53:11.251Z,7.70
2018-12-30T15:55:39.811Z,7.60
2018-12-30T15:58:08.373Z,7.60
2018-12-30T16:00:36.982Z,7.50
2018-12-30T16:03:05.536Z,7.50
2018-12-30T16:05:34.092Z,7.40
2018-12-30T16:08:02.705Z,7.40
2018-12-30T16:10:31.265Z,7.30
2018-12-30T16:12:59.862Z,7.30
2018-12-30T16:15:28.473Z,7.30
2018-12-30T16:17:57.032Z,7.60
2018-12-30T16:20:25.597Z,8.00
2018-12-30T16:22:54.208Z,8.30
2018-12-30T16:25:27.154Z,8.50
2018-12-30T16:27:52.969Z,8.60
2018-12-30T16:30:21.577Z,8.20
2018-12-30T16:32:50.144Z,8.00
2018-12-30T16:35:18.827Z,7.80
2018-12-30T16:37:49.419Z,7.70
2018-12-30T16:40:18.165Z,7.60
2018-12-30T16:42:46.717Z,7.50
2018-12-30T16:45:15.342Z,7.40
2018-12-30T16:47:44.188Z,7.30
2018-12-30T16:50:12.885Z,7.30
2018-12-30T16:52:41.522Z,7.20
2018-12-30T16:55:10.049Z,7.20
2018-12-30T16:57:38.617Z,7.10
2018-12-30T17:00:09.832Z,7.10
2018-12-30T17:02:38.381Z,7.00
2018-12-30T17:05:08.332Z,7.00
2018-12-30T17:07:36.885Z,7.00
2018-12-30T17:10:07.777Z,7.00
2018-12-30T17:12:36.425Z,7.00
2018-12-30T17:15:07.401Z,7.00
2018-12-30T17:17:35.956Z,7.00
2018-12-30T17:20:06.417Z,7.00
2018-12-30T17:22:35.033Z,7.00
2018-12-30T17:25:03.723Z,7.00
2018-12-30T17:27:32.280Z,7.00
2018-12-30T17:30:02.437Z,7.00
2018-12-30T17:32:31.000Z,7.00
2018-12-30T17:34:59.560Z,7.10
2018-12-30T17:37:28.171Z,7.10
2018-12-30T17:39:56.728Z,7.00
2018-12-30T17:42:25.297Z,7.10
2018-12-30T17:44:53.899Z,7.10
2018-12-30T17:47:22.461Z,7.20
2018-12-30T17:49:51.034Z,7.20
2018-12-30T17:52:19.640Z,7.30
2018-12-30T17:54:48.200Z,7.30
2018-12-30T17:57:16.885Z,7.40
2018-12-30T17:59:45.617Z,7.70
2018-12-30T18:02:14.256Z,8.00
2018-12-30T18:04:42.889Z,8.10
2018-12-30T18:07:11.493Z,8.30
2018-12-30T18:09:40.177Z,8.40
2018-12-30T18:12:08.739Z,8.40
2018-12-30T18:14:37.355Z,8.40
2018-12-30T18:17:05.912Z,8.50
2018-12-30T18:19:34.473Z,8.60
2018-12-30T18:22:03.081Z,8.60
2018-12-30T18:24:31.637Z,8.60
2018-12-30T18:27:00.202Z,8.70
2018-12-30T18:29:28.857Z,8.70
2018-12-30T18:31:57.459Z,8.80
2018-12-30T18:34:26.181Z,8.80
2018-12-30T18:36:54.785Z,8.80
2018-12-30T18:39:23.343Z,8.90
2018-12-30T18:41:51.911Z,8.90
2018-12-30T18:44:20.526Z,8.90
2018-12-30T18:46:49.108Z,8.90
2018-12-30T18:49:18.736Z,8.80
2018-12-30T18:51:47.341Z,8.60
2018-12-30T18:54:15.910Z,8.50
2018-12-30T18:56:44.467Z,8.40
2018-12-30T18:59:13.074Z,8.20
2018-12-30T19:01:41.649Z,8.20
2018-12-30T19:04:10.318Z,8.10
2018-12-30T19:06:38.932Z,8.00
2018-12-30T19:09:07.555Z,8.00
2018-12-30T19:11:36.121Z,8.00
2018-12-30T19:14:04.802Z,8.00
2018-12-30T19:16:33.371Z,7.90
2018-12-30T19:19:01.933Z,7.90
2018-12-30T19:21:30.521Z,7.90
2018-12-30T19:23:59.134Z,7.80
2018-12-30T19:26:27.765Z,7.80
2018-12-30T19:28:56.324Z,7.80
2018-12-30T19:31:24.940Z,7.80
2018-12-30T19:33:53.633Z,7.80
2018-12-30T19:36:22.192Z,7.80
2018-12-30T19:38:51.149Z,7.70
2018-12-30T19:41:19.708Z,7.70
2018-12-30T19:43:48.375Z,7.70
2018-12-30T19:46:16.921Z,7.70
2018-12-30T19:48:45.480Z,7.70
2018-12-30T19:51:14.031Z,7.70
2018-12-30T19:53:42.656Z,7.70
2018-12-30T19:56:11.240Z,7.70
2018-12-30T19:58:39.860Z,7.70
2018-12-30T20:01:08.472Z,7.70
2018-12-30T20:03:37.046Z,7.70
2018-12-30T20:06:05.595Z,7.70
2018-12-30T20:08:34.281Z,7.70
2018-12-30T20:11:02.840Z,7.60
2018-12-30T20:13:31.532Z,7.60
2018-12-30T20:16:00.216Z,7.60
2018-12-30T20:18:28.823Z,7.70
2018-12-30T20:20:57.721Z,8.00
2018-12-30T20:23:26.385Z,8.30
2018-12-30T20:25:54.989Z,8.40
2018-12-30T20:28:23.641Z,8.40
2018-12-30T20:30:52.307Z,8.40
2018-12-30T20:33:21.988Z,8.50
2018-12-30T20:35:50.562Z,8.50
2018-12-30T20:38:19.134Z,8.50
2018-12-30T20:40:47.783Z,8.50
2018-12-30T20:43:16.338Z,8.50
2018-12-30T20:45:45.019Z,8.50
2018-12-30T20:48:13.716Z,8.50
2018-12-30T20:50:42.341Z,8.30
2018-12-30T20:53:10.976Z,8.10
2018-12-30T20:55:39.773Z,7.90
2018-12-30T20:58:08.385Z,7.80
2018-12-30T21:00:36.989Z,7.60
2018-12-30T21:03:05.561Z,7.50
2018-12-30T21:05:34.318Z,7.40
2018-12-30T21:08:02.906Z,7.30
2018-12-30T21:10:31.504Z,7.30
2018-12-30T21:13:00.101Z,7.30
2018-12-30T21:15:28.673Z,7.20
2018-12-30T21:17:57.236Z,7.20
2018-12-30T21:20:25.924Z,7.20
2018-12-30T21:22:54.477Z,7.20
2018-12-30T21:25:23.044Z,7.10
2018-12-30T21:27:51.649Z,7.10
2018-12-30T21:30:20.212Z,7.10
2018-12-30T21:32:48.776Z,7.10
2018-12-30T21:35:17.503Z,7.10
2018-12-30T21:37:46.076Z,7.10
2018-12-30T21:40:14.638Z,7.10
2018-12-30T21:42:43.920Z,7.10
2018-12-30T21:45:12.694Z,7.10
2018-12-30T21:47:41.297Z,7.10
2018-12-30T21:50:09.977Z,7.00
2018-12-30T21:52:38.529Z,7.10
2018-12-30T21:55:07.138Z,7.10
2018-12-30T21:57:35.701Z,7.10
2018-12-30T22:00:05.405Z,7.10
2018-12-30T22:02:34.018Z,7.10
2018-12-30T22:05:02.576Z,7.10
2018-12-30T22:07:31.140Z,7.10
2018-12-30T22:09:59.737Z,7.10
2018-12-30T22:12:28.324Z,7.20
2018-12-30T22:14:56.936Z,7.00
2018-12-30T22:17:25.496Z,7.10
2018-12-30T22:19:54.054Z,7.10
2018-12-30T22:22:22.674Z,7.10
2018-12-30T22:24:51.227Z,7.00
2018-12-30T22:27:19.780Z,7.00
2018-12-30T22:29:48.389Z,7.00
2018-12-30T22:32:16.954Z,7.00
2018-12-30T22:34:45.625Z,7.00
2018-12-30T22:37:14.234Z,7.00
2018-12-30T22:39:42.884Z,6.90
2018-12-30T22:42:11.371Z,6.90
2018-12-30T22:44:40.001Z,6.90
2018-12-30T22:47:08.566Z,6.80
2018-12-30T22:49:37.133Z,6.80
2018-12-30T22:52:05.737Z,6.80
2018-12-30T22:54:34.298Z,6.70
2018-12-30T22:57:02.869Z,6.80
2018-12-30T22:59:31.489Z,6.80
2018-12-30T23:02:00.125Z,6.80
2018-12-30T23:04:28.703Z,6.70
2018-12-30T23:06:57.318Z,6.70
2018-12-30T23:09:25.893Z,6.70
2018-12-30T23:11:54.760Z,6.60
2018-12-30T23:14:23.396Z,6.60
2018-12-30T23:16:51.958Z,6.60
2018-12-30T23:19:20.529Z,6.60
2018-12-30T23:21:49.152Z,6.60
2018-12-30T23:24:17.710Z,6.60
2018-12-30T23:26:46.280Z,6.60
2018-12-30T23:29:14.909Z,6.60
2018-12-30T23:31:43.470Z,6.60
2018-12-30T23:34:12.038Z,6.70
2018-12-30T23:36:40.649Z,6.60
2018-12-30T23:39:09.219Z,6.60
2018-12-30T23:41:38.046Z,6.60
2018-12-30T23:44:06.668Z,6.50
2018-12-30T23:46:35.247Z,6.50
2018-12-30T23:49:03.814Z,6.50
2018-12-30T23:51:32.433Z,6.50
2018-12-30T23:54:01.008Z,6.50
2018-12-30T23:56:29.641Z,6.60
2018-12-30T23:58:58.256Z,6.50
